createdAt,value
2023-02-24T00:01:51.677Z,13.29
2023-02-24T00:04:21.537Z,12.83
2023-02-24T00:06:49.888Z,13.59
2023-02-24T00:09:20.069Z,13.51
2023-02-24T00:11:54.894Z,12.77
2023-02-24T00:14:24.665Z,13.06
2023-02-24T00:16:53.630Z,13.20
2023-02-24T00:19:23.539Z,12.84
2023-02-24T00:21:54.221Z,13.12
2023-02-24T00:24:23.249Z,13.37
2023-02-24T00:26:57.295Z,13.22
2023-02-24T00:29:25.454Z,13.62
2023-02-24T00:31:59.079Z,12.90
2023-02-24T00:34:27.382Z,13.15
2023-02-24T00:36:57.437Z,13.05
2023-02-24T00:39:30.631Z,13.08
2023-02-24T00:42:04.724Z,13.06
2023-02-24T00:44:33.838Z,12.74
2023-02-24T00:47:02.768Z,13.33
2023-02-24T00:49:30.807Z,13.00
2023-02-24T00:51:59.109Z,12.95
2023-02-24T00:54:28.347Z,13.83
2023-02-24T00:56:57.159Z,12.90
2023-02-24T00:59:26.424Z,13.69
2023-02-24T01:01:55.561Z,13.00
2023-02-24T01:04:23.811Z,13.40
2023-02-24T01:07:00.039Z,13.79
2023-02-24T01:09:29.516Z,12.66
2023-02-24T01:12:16.457Z,12.85
2023-02-24T01:14:48.688Z,13.58
2023-02-24T01:17:18.164Z,13.65
2023-02-24T01:19:49.073Z,13.58
2023-02-24T01:22:19.611Z,13.19
2023-02-24T01:24:48.228Z,12.88
2023-02-24T01:27:18.590Z,13.20
2023-02-24T01:29:48.098Z,12.84
2023-02-24T01:32:18.688Z,13.03
2023-02-24T01:34:47.118Z,13.18
2023-02-24T01:37:16.905Z,13.45
2023-02-24T01:39:45.155Z,13.11
2023-02-24T01:42:19.212Z,12.52
2023-02-24T01:45:13.129Z,12.74
2023-02-24T01:47:42.353Z,12.42
2023-02-24T01:50:14.946Z,13.43
2023-02-24T01:52:45.866Z,12.75
2023-02-24T01:55:20.029Z,13.05
2023-02-24T01:57:49.890Z,12.64
2023-02-24T02:00:37.413Z,12.88
2023-02-24T02:03:19.020Z,12.74
2023-02-24T02:05:48.489Z,12.74
2023-02-24T02:08:18.925Z,12.83
2023-02-24T02:10:47.651Z,12.89
2023-02-24T02:13:21.047Z,13.22
2023-02-24T02:16:06.251Z,12.19
2023-02-24T02:18:46.546Z,12.76
2023-02-24T02:21:55.023Z,12.82
2023-02-24T02:24:40.971Z,13.65
2023-02-24T02:27:23.840Z,12.95
2023-02-24T02:30:29.592Z,12.51
2023-02-24T02:33:30.929Z,12.85
2023-02-24T02:36:13.014Z,12.87
2023-02-24T02:38:50.615Z,13.19
2023-02-24T02:41:25.581Z,12.76
2023-02-24T02:44:03.768Z,12.96
2023-02-24T02:46:37.242Z,12.35
2023-02-24T02:49:15.094Z,12.68
2023-02-24T02:51:51.672Z,13.03
2023-02-24T02:54:27.358Z,12.89
2023-02-24T02:57:01.353Z,12.33
2023-02-24T02:59:32.194Z,12.62
2023-02-24T03:02:11.488Z,12.30
2023-02-24T03:04:43.460Z,12.55
2023-02-24T03:07:17.760Z,12.08
2023-02-24T03:09:51.659Z,13.14
2023-02-24T03:12:23.716Z,12.22
2023-02-24T03:14:59.048Z,12.21
2023-02-24T03:17:31.072Z,12.87
2023-02-24T03:20:13.078Z,12.68
2023-02-24T03:22:47.059Z,12.27
2023-02-24T03:25:16.821Z,12.15
2023-02-24T03:27:50.128Z,12.48
2023-02-24T03:30:26.733Z,12.37
2023-02-24T03:32:59.157Z,12.06
2023-02-24T03:35:32.261Z,12.53
2023-02-24T03:38:06.252Z,12.68
2023-02-24T03:40:35.441Z,12.57
2023-02-24T03:43:09.128Z,12.26
2023-02-24T03:45:38.427Z,12.47
2023-02-24T03:48:07.749Z,12.62
2023-02-24T03:50:38.058Z,12.25
2023-02-24T03:53:38.788Z,12.38
2023-02-24T03:56:20.008Z,12.54
2023-02-24T03:59:03.000Z,12.05
2023-02-24T04:01:37.571Z,12.09
2023-02-24T04:04:15.848Z,12.56
2023-02-24T04:06:57.880Z,12.43
2023-02-24T04:09:39.811Z,11.65
2023-02-24T04:12:19.925Z,12.05
2023-02-24T04:14:56.901Z,12.03
2023-02-24T04:17:31.173Z,12.48
2023-02-24T04:20:09.176Z,12.82
2023-02-24T04:22:40.927Z,12.43
2023-02-24T04:25:13.652Z,13.17
2023-02-24T04:27:44.609Z,12.29
2023-02-24T04:30:16.546Z,12.26
2023-02-24T04:32:44.908Z,12.46
2023-02-24T04:35:16.923Z,12.56
2023-02-24T04:37:50.497Z,12.47
2023-02-24T04:40:23.027Z,12.32
2023-02-24T04:42:52.161Z,12.87
2023-02-24T04:45:22.828Z,12.38
2023-02-24T04:47:53.149Z,11.87
2023-02-24T04:50:25.870Z,12.29
2023-02-24T04:52:55.600Z,12.13
2023-02-24T04:55:29.453Z,12.16
2023-02-24T04:57:58.269Z,12.47
2023-02-24T05:00:29.397Z,11.92
2023-02-24T05:02:58.097Z,11.89
2023-02-24T05:05:27.706Z,11.93
2023-02-24T05:08:02.892Z,12.10
2023-02-24T05:10:36.420Z,12.02
2023-02-24T05:13:06.660Z,11.85
2023-02-24T05:15:35.271Z,12.15
2023-02-24T05:18:07.601Z,12.22
2023-02-24T05:20:55.378Z,11.81
2023-02-24T05:23:26.303Z,12.03
2023-02-24T05:25:55.921Z,11.98
2023-02-24T05:28:24.136Z,12.46
2023-02-24T05:30:53.745Z,11.89
2023-02-24T05:33:22.450Z,12.40
2023-02-24T05:35:51.455Z,11.83
2023-02-24T05:38:20.461Z,11.84
2023-02-24T05:40:48.868Z,11.25
2023-02-24T05:43:18.338Z,12.38
2023-02-24T05:45:46.546Z,11.49
2023-02-24T05:48:15.618Z,11.79
2023-02-24T05:50:46.677Z,11.29
2023-02-24T05:53:15.100Z,11.80
2023-02-24T05:55:43.621Z,11.92
2023-02-24T05:58:11.616Z,11.88
2023-02-24T06:00:45.248Z,12.01
2023-02-24T06:03:17.524Z,12.04
2023-02-24T06:05:53.380Z,12.36
2023-02-24T06:08:24.310Z,12.11
2023-02-24T06:10:52.093Z,11.51
2023-02-24T06:13:19.921Z,11.75
2023-02-24T06:15:50.624Z,11.44
2023-02-24T06:18:18.779Z,11.50
2023-02-24T06:20:51.225Z,11.69
2023-02-24T06:23:19.443Z,11.80
2023-02-24T06:25:47.364Z,11.40
2023-02-24T06:28:15.226Z,11.90
2023-02-24T06:30:43.095Z,10.96
2023-02-24T06:33:12.441Z,11.07
2023-02-24T06:35:40.330Z,11.37
2023-02-24T06:38:08.182Z,11.64
2023-02-24T06:40:37.800Z,11.76
2023-02-24T06:43:05.733Z,11.12
2023-02-24T06:45:33.733Z,11.40
2023-02-24T06:48:03.133Z,12.13
2023-02-24T06:50:32.846Z,10.75
2023-02-24T06:53:02.618Z,10.37
2023-02-24T06:55:30.626Z,10.88
2023-02-24T06:58:04.673Z,11.98
2023-02-24T07:00:39.789Z,12.19
2023-02-24T07:03:15.701Z,12.45
2023-02-24T07:05:50.509Z,11.26
2023-02-24T07:08:23.088Z,11.31
2023-02-24T07:10:55.954Z,11.65
2023-02-24T07:13:25.364Z,11.87
2023-02-24T07:15:53.310Z,10.69
2023-02-24T07:18:21.146Z,11.02
2023-02-24T07:20:50.548Z,11.16
2023-02-24T07:23:18.428Z,12.06
2023-02-24T07:25:47.228Z,10.96
2023-02-24T07:28:17.066Z,11.48
2023-02-24T07:30:45.769Z,11.46
2023-02-24T07:33:14.316Z,11.69
2023-02-24T07:35:42.390Z,11.47
2023-02-24T07:38:17.070Z,11.26
2023-02-24T07:40:47.195Z,11.63
2023-02-24T07:43:15.985Z,11.49
2023-02-24T07:45:47.418Z,11.55
2023-02-24T07:48:15.894Z,11.88
2023-02-24T07:50:43.811Z,12.43
2023-02-24T07:53:13.041Z,11.74
2023-02-24T07:55:41.706Z,11.48
2023-02-24T07:58:10.673Z,11.31
2023-02-24T08:00:58.802Z,11.42
2023-02-24T08:03:29.937Z,11.82
2023-02-24T08:06:12.908Z,11.92
2023-02-24T08:08:57.865Z,11.88
2023-02-24T08:11:27.526Z,11.37
2023-02-24T08:13:57.875Z,12.06
2023-02-24T08:16:34.514Z,12.17
2023-02-24T08:19:03.455Z,11.49
2023-02-24T08:21:38.006Z,10.68
2023-02-24T08:24:09.284Z,11.21
2023-02-24T08:26:44.668Z,10.58
2023-02-24T08:29:13.366Z,11.03
2023-02-24T08:31:43.225Z,11.20
2023-02-24T08:34:15.986Z,11.44
2023-02-24T08:36:55.827Z,11.94
2023-02-24T08:39:25.266Z,11.82
2023-02-24T08:41:54.866Z,11.40
2023-02-24T08:44:23.003Z,10.71
2023-02-24T08:46:52.336Z,11.11
2023-02-24T08:49:24.854Z,12.25
2023-02-24T08:51:53.972Z,11.15
2023-02-24T08:54:27.244Z,11.93
2023-02-24T08:56:57.867Z,11.43
2023-02-24T08:59:37.887Z,11.52
2023-02-24T09:02:24.211Z,11.82
2023-02-24T09:04:55.167Z,11.29
2023-02-24T09:07:25.649Z,10.73
2023-02-24T09:09:56.398Z,11.60
2023-02-24T09:12:28.980Z,11.49
2023-02-24T09:15:01.050Z,11.24
2023-02-24T09:17:50.549Z,11.94
2023-02-24T09:20:38.482Z,11.23
2023-02-24T09:23:07.616Z,10.46
2023-02-24T09:25:44.907Z,11.80
2023-02-24T09:28:18.034Z,11.85
2023-02-24T09:30:58.476Z,11.58
2023-02-24T09:33:29.051Z,11.58
2023-02-24T09:36:09.757Z,11.40
2023-02-24T09:39:02.346Z,11.91
2023-02-24T09:41:45.207Z,12.07
2023-02-24T09:44:19.198Z,10.70
2023-02-24T09:46:54.852Z,12.17
2023-02-24T09:49:28.494Z,10.77
2023-02-24T09:52:08.945Z,11.17
2023-02-24T09:54:36.972Z,10.84
2023-02-24T09:57:16.704Z,12.06
2023-02-24T10:00:22.130Z,11.64
2023-02-24T10:03:00.187Z,11.60
2023-02-24T10:05:38.343Z,11.89
2023-02-24T10:08:13.696Z,12.05
2023-02-24T10:11:00.833Z,11.12
2023-02-24T10:13:33.186Z,10.52
2023-02-24T10:16:07.131Z,10.97
2023-02-24T10:18:44.018Z,11.04
2023-02-24T10:21:30.684Z,11.67
2023-02-24T10:24:14.398Z,11.38
2023-02-24T10:26:59.548Z,11.23
2023-02-24T10:29:43.323Z,11.36
2023-02-24T10:32:23.893Z,10.95
2023-02-24T10:34:53.079Z,11.19
2023-02-24T10:37:28.629Z,10.58
2023-02-24T10:39:59.351Z,10.37
2023-02-24T10:42:31.629Z,10.99
2023-02-24T10:45:17.974Z,10.95
2023-02-24T10:47:56.825Z,11.36
2023-02-24T10:50:29.776Z,11.79
2023-02-24T10:53:34.518Z,11.16
2023-02-24T10:56:31.657Z,10.39
2023-02-24T10:59:37.529Z,10.85
2023-02-24T11:02:29.440Z,11.10
2023-02-24T11:05:25.021Z,10.61
2023-02-24T11:08:15.808Z,10.90
2023-02-24T11:10:58.688Z,11.69
2023-02-24T11:13:45.731Z,12.44
2023-02-24T11:16:30.969Z,11.66
2023-02-24T11:18:59.146Z,11.99
2023-02-24T11:21:29.312Z,11.22
2023-02-24T11:24:02.818Z,10.61
2023-02-24T11:26:37.222Z,11.05
2023-02-24T11:29:19.747Z,11.42
2023-02-24T11:32:00.177Z,10.50
2023-02-24T11:34:35.210Z,10.29
2023-02-24T11:37:15.520Z,10.89
2023-02-24T11:39:54.313Z,10.84
2023-02-24T11:42:27.018Z,10.81
2023-02-24T11:45:00.948Z,11.57
2023-02-24T11:47:36.735Z,10.38
2023-02-24T11:50:19.153Z,11.21
2023-02-24T11:52:51.051Z,10.79
2023-02-24T11:55:28.315Z,10.89
2023-02-24T11:58:01.383Z,10.34
2023-02-24T12:00:34.347Z,10.25
2023-02-24T12:03:13.019Z,10.22
2023-02-24T12:05:44.794Z,11.13
2023-02-24T12:08:25.700Z,11.13
2023-02-24T12:10:59.868Z,11.10
2023-02-24T12:13:38.175Z,11.11
2023-02-24T12:16:11.693Z,9.93
2023-02-24T12:18:42.195Z,10.97
2023-02-24T12:21:16.427Z,11.13
2023-02-24T12:23:48.277Z,10.22
2023-02-24T12:26:21.058Z,11.10
2023-02-24T12:29:09.710Z,10.06
2023-02-24T12:31:53.454Z,10.89
2023-02-24T12:34:33.920Z,10.03
2023-02-24T12:37:21.124Z,11.05
2023-02-24T12:40:05.753Z,10.82
2023-02-24T12:42:42.360Z,10.23
2023-02-24T12:45:18.369Z,10.56
2023-02-24T12:48:00.311Z,9.56
2023-02-24T12:50:38.467Z,9.76
2023-02-24T12:53:17.356Z,10.77
2023-02-24T12:55:56.398Z,10.30
2023-02-24T12:58:27.863Z,10.90
2023-02-24T13:01:06.549Z,11.13
2023-02-24T13:03:55.787Z,10.51
2023-02-24T13:06:34.052Z,10.34
2023-02-24T13:09:08.198Z,10.55
2023-02-24T13:11:47.993Z,10.03
2023-02-24T13:14:25.596Z,10.23
2023-02-24T13:17:05.365Z,10.12
2023-02-24T13:19:33.382Z,10.73
2023-02-24T13:22:08.669Z,11.45
2023-02-24T13:24:37.563Z,11.25
2023-02-24T13:27:21.646Z,10.64
2023-02-24T13:29:51.159Z,11.23
2023-02-24T13:32:29.555Z,11.68
2023-02-24T13:34:58.990Z,11.39
2023-02-24T13:37:33.165Z,11.08
2023-02-24T13:40:01.521Z,11.23
2023-02-24T13:42:32.277Z,11.18
2023-02-24T13:45:17.350Z,11.87
2023-02-24T13:48:12.745Z,10.38
2023-02-24T13:50:53.107Z,10.81
2023-02-24T13:53:35.420Z,10.88
2023-02-24T13:56:21.215Z,10.39
2023-02-24T13:59:20.816Z,11.49
2023-02-24T14:01:51.494Z,11.25
2023-02-24T14:04:23.662Z,10.65
2023-02-24T14:06:54.050Z,11.17
2023-02-24T14:09:25.761Z,11.11
2023-02-24T14:12:04.524Z,10.70
2023-02-24T14:14:35.322Z,10.86
2023-02-24T14:17:03.152Z,10.61
2023-02-24T14:19:30.941Z,10.87
2023-02-24T14:22:01.780Z,10.80
2023-02-24T14:24:30.301Z,11.46
2023-02-24T14:27:00.294Z,11.00
2023-02-24T14:29:31.789Z,10.46
2023-02-24T14:32:02.322Z,10.68
2023-02-24T14:34:33.919Z,10.53
2023-02-24T14:37:04.722Z,11.14
2023-02-24T14:39:34.249Z,11.21
2023-02-24T14:42:12.915Z,10.89
2023-02-24T14:44:44.067Z,11.63
2023-02-24T14:47:16.547Z,11.26
2023-02-24T14:49:54.448Z,11.30
2023-02-24T14:52:30.732Z,10.87
2023-02-24T14:55:03.352Z,10.49
2023-02-24T14:57:35.498Z,10.81
2023-02-24T15:00:11.767Z,12.20
2023-02-24T15:02:47.597Z,11.66
2023-02-24T15:05:16.872Z,11.73
2023-02-24T15:07:46.100Z,11.48
2023-02-24T15:10:22.149Z,12.41
2023-02-24T15:12:52.957Z,11.90
2023-02-24T15:15:23.515Z,12.16
2023-02-24T15:17:55.692Z,11.55
2023-02-24T15:20:32.850Z,12.37
2023-02-24T15:23:01.099Z,12.57
2023-02-24T15:25:41.908Z,11.57
2023-02-24T15:28:24.711Z,11.69
2023-02-24T15:31:02.717Z,11.83
2023-02-24T15:33:36.497Z,11.73
2023-02-24T15:36:11.175Z,12.15
2023-02-24T15:38:40.994Z,11.85
2023-02-24T15:41:11.072Z,12.76
2023-02-24T15:43:47.284Z,12.71
2023-02-24T15:46:26.294Z,12.29
2023-02-24T15:48:57.441Z,12.47
2023-02-24T15:51:35.119Z,13.04
2023-02-24T15:54:04.770Z,12.86
2023-02-24T15:56:35.445Z,13.28
2023-02-24T15:59:03.326Z,13.57
2023-02-24T16:01:32.567Z,12.98
2023-02-24T16:04:04.572Z,13.12
2023-02-24T16:06:33.904Z,13.30
2023-02-24T16:09:05.218Z,13.22
2023-02-24T16:11:38.467Z,12.64
2023-02-24T16:14:06.491Z,11.98
2023-02-24T16:16:34.261Z,11.87
2023-02-24T16:19:03.529Z,12.28
2023-02-24T16:21:31.352Z,12.17
2023-02-24T16:23:59.221Z,12.46
2023-02-24T16:26:27.061Z,12.07
2023-02-24T16:28:56.362Z,11.11
2023-02-24T16:31:25.449Z,11.62
2023-02-24T16:33:55.602Z,12.70
2023-02-24T16:36:26.315Z,13.12
2023-02-24T16:38:54.438Z,12.17
2023-02-24T16:41:22.631Z,12.35
2023-02-24T16:43:50.770Z,11.68
2023-02-24T16:46:22.406Z,11.81
2023-02-24T16:48:53.185Z,13.19
2023-02-24T16:51:21.506Z,12.47
2023-02-24T16:53:50.692Z,12.27
2023-02-24T16:56:18.502Z,11.56
2023-02-24T16:58:46.228Z,12.35
2023-02-24T17:01:20.024Z,12.52
2023-02-24T17:03:50.787Z,13.09
2023-02-24T17:06:21.603Z,13.32
2023-02-24T17:08:51.318Z,13.47
2023-02-24T17:11:21.765Z,13.12
2023-02-24T17:13:49.573Z,12.36
2023-02-24T17:16:17.355Z,12.86
2023-02-24T17:18:45.216Z,13.89
2023-02-24T17:21:14.422Z,12.63
2023-02-24T17:23:43.500Z,12.82
2023-02-24T17:26:15.371Z,12.74
2023-02-24T17:28:43.188Z,13.08
2023-02-24T17:31:11.082Z,13.12
2023-02-24T17:33:39.063Z,13.79
2023-02-24T17:36:07.405Z,12.13
2023-02-24T17:38:35.244Z,13.09
2023-02-24T17:41:03.336Z,13.33
2023-02-24T17:43:32.477Z,13.39
2023-02-24T17:46:06.497Z,13.98
2023-02-24T17:48:35.057Z,13.14
2023-02-24T17:51:02.856Z,13.14
2023-02-24T17:53:31.203Z,12.15
2023-02-24T17:56:03.424Z,12.42
2023-02-24T17:58:33.324Z,12.54
2023-02-24T18:01:02.069Z,13.55
2023-02-24T18:03:30.498Z,13.15
2023-02-24T18:06:03.071Z,13.08
2023-02-24T18:08:31.400Z,13.80
2023-02-24T18:11:00.834Z,13.05
2023-02-24T18:13:29.906Z,14.00
2023-02-24T18:15:59.733Z,13.55
2023-02-24T18:18:30.224Z,12.47
2023-02-24T18:21:02.640Z,12.92
2023-02-24T18:23:30.883Z,13.72
2023-02-24T18:26:02.274Z,12.95
2023-02-24T18:28:30.230Z,13.21
2023-02-24T18:31:00.573Z,13.60
2023-02-24T18:33:29.278Z,13.60
2023-02-24T18:36:00.681Z,13.76
2023-02-24T18:38:29.243Z,13.83
2023-02-24T18:41:01.669Z,13.94
2023-02-24T18:43:30.276Z,14.11
2023-02-24T18:46:02.090Z,13.09
2023-02-24T18:48:31.742Z,13.24
2023-02-24T18:51:00.561Z,13.06
2023-02-24T18:53:31.322Z,13.39
2023-02-24T18:56:03.517Z,13.02
2023-02-24T18:58:32.129Z,13.39
2023-02-24T19:01:01.313Z,13.62
2023-02-24T19:03:29.085Z,13.63
2023-02-24T19:05:56.808Z,13.98
2023-02-24T19:08:24.702Z,13.81
2023-02-24T19:10:52.400Z,13.69
2023-02-24T19:13:20.540Z,13.31
2023-02-24T19:15:48.412Z,14.02
2023-02-24T19:18:17.913Z,13.91
2023-02-24T19:20:45.673Z,13.67
2023-02-24T19:23:13.413Z,13.44
2023-02-24T19:25:41.180Z,13.40
2023-02-24T19:28:08.920Z,14.35
2023-02-24T19:30:39.080Z,13.03
2023-02-24T19:33:07.048Z,12.96
2023-02-24T19:35:40.288Z,13.54
2023-02-24T19:38:08.060Z,13.27
2023-02-24T19:40:36.452Z,13.59
2023-02-24T19:43:04.411Z,12.96
2023-02-24T19:45:32.289Z,13.50
2023-02-24T19:48:00.146Z,13.69
2023-02-24T19:50:28.387Z,14.11
2023-02-24T19:52:57.659Z,13.16
2023-02-24T19:55:25.674Z,13.14
2023-02-24T19:57:54.795Z,13.59
2023-02-24T20:00:23.477Z,13.27
2023-02-24T20:02:53.191Z,13.59
2023-02-24T20:05:21.315Z,14.11
2023-02-24T20:07:49.038Z,13.72
2023-02-24T20:10:18.736Z,13.19
2023-02-24T20:12:46.542Z,13.73
2023-02-24T20:15:15.373Z,13.61
2023-02-24T20:17:43.146Z,13.49
2023-02-24T20:20:13.024Z,13.87
2023-02-24T20:22:41.161Z,12.29
2023-02-24T20:25:09.529Z,12.42
2023-02-24T20:27:38.651Z,12.60
2023-02-24T20:30:07.254Z,13.13
2023-02-24T20:32:35.380Z,13.55
2023-02-24T20:35:03.329Z,12.99
2023-02-24T20:37:31.211Z,12.55
2023-02-24T20:39:59.045Z,12.84
2023-02-24T20:42:26.801Z,12.80
2023-02-24T20:44:55.991Z,12.93
2023-02-24T20:47:23.806Z,13.06
2023-02-24T20:49:51.512Z,12.82
2023-02-24T20:52:19.256Z,11.98
2023-02-24T20:54:46.965Z,12.65
2023-02-24T20:57:14.845Z,13.21
2023-02-24T20:59:49.263Z,11.88
2023-02-24T21:02:23.835Z,12.69
2023-02-24T21:04:51.660Z,11.61
2023-02-24T21:07:19.410Z,12.39
2023-02-24T21:09:47.270Z,12.33
2023-02-24T21:12:15.044Z,12.85
2023-02-24T21:14:43.720Z,11.74
2023-02-24T21:17:12.406Z,11.30
2023-02-24T21:19:43.124Z,11.85
2023-02-24T21:22:10.841Z,11.52
2023-02-24T21:24:38.601Z,11.38
2023-02-24T21:27:06.423Z,10.82
2023-02-24T21:29:34.154Z,11.02
2023-02-24T21:32:03.225Z,11.08
2023-02-24T21:34:31.610Z,10.90
2023-02-24T21:37:01.602Z,11.32
2023-02-24T21:39:29.433Z,10.39
2023-02-24T21:41:57.261Z,10.68
2023-02-24T21:44:25.630Z,11.06
2023-02-24T21:46:53.449Z,10.89
2023-02-24T21:49:23.449Z,11.11
2023-02-24T21:51:51.627Z,11.28
2023-02-24T21:54:20.753Z,11.07
2023-02-24T21:56:48.613Z,11.62
2023-02-24T21:59:16.380Z,11.49
2023-02-24T22:01:45.827Z,11.09
2023-02-24T22:04:15.968Z,10.73
2023-02-24T22:06:44.575Z,10.71
2023-02-24T22:09:14.217Z,10.31
2023-02-24T22:11:43.352Z,10.43
2023-02-24T22:14:13.573Z,10.46
2023-02-24T22:16:42.937Z,10.51
2023-02-24T22:19:11.619Z,10.65
2023-02-24T22:21:42.262Z,10.66
2023-02-24T22:24:13.175Z,10.60
2023-02-24T22:26:41.289Z,11.34
2023-02-24T22:29:10.970Z,10.58
2023-02-24T22:31:39.516Z,11.02
2023-02-24T22:34:08.744Z,11.01
2023-02-24T22:36:37.741Z,10.58
2023-02-24T22:39:07.162Z,11.07
2023-02-24T22:41:35.880Z,11.42
2023-02-24T22:44:05.674Z,11.15
2023-02-24T22:46:37.422Z,10.06
2023-02-24T22:49:05.570Z,10.92
2023-02-24T22:51:33.509Z,11.27
2023-02-24T22:54:01.254Z,10.71
2023-02-24T22:56:29.922Z,10.81
2023-02-24T22:58:58.337Z,10.85
2023-02-24T23:01:28.704Z,10.94
2023-02-24T23:04:00.767Z,11.19
2023-02-24T23:06:28.728Z,11.07
2023-02-24T23:08:59.007Z,10.86
2023-02-24T23:11:29.431Z,10.93
2023-02-24T23:13:59.588Z,11.31
2023-02-24T23:16:31.525Z,11.68
2023-02-24T23:19:04.188Z,11.56
2023-02-24T23:21:34.954Z,11.56
2023-02-24T23:24:04.014Z,12.32
2023-02-24T23:26:33.188Z,11.07
2023-02-24T23:29:01.324Z,12.15
2023-02-24T23:31:29.378Z,11.58
2023-02-24T23:33:57.907Z,11.58
2023-02-24T23:36:27.329Z,11.68
2023-02-24T23:38:55.130Z,10.89
2023-02-24T23:41:22.883Z,11.59
2023-02-24T23:43:50.608Z,11.20
2023-02-24T23:46:18.572Z,11.05
2023-02-24T23:48:46.816Z,11.31
2023-02-24T23:51:16.296Z,11.28
2023-02-24T23:53:47.051Z,11.10
2023-02-24T23:56:16.915Z,11.34
2023-02-24T23:58:45.529Z,11.29
